Time;durP1;ratioP1;P1;durP2;ratioP2;P2;SDS_P1;SDS_P2;PMS_P1;PMS_P2;Temp;Humidity;BMP_temperature;BMP_pressure;BME280_temperature;BME280_humidity;BME280_pressure;Samples;Min_cycle;Max_cycle;Signal;HPM_P1;HPM_P2
2024/03/29 01:44:46;;;;;;;1.70;0.80;;;9.00;99.90;;;;;;5065140;28;20819;-75
2024/03/29 01:47:13;;;;;;;1.37;0.70;;;8.90;99.90;;;;;;5077063;28;20432;-75
2024/03/29 01:49:41;;;;;;;1.07;0.90;;;8.90;99.90;;;;;;5066839;28;20298;-74
2024/03/29 01:52:08;;;;;;;0.97;0.77;;;8.90;99.90;;;;;;5068173;28;20235;-74
2024/03/29 01:54:35;;;;;;;0.93;0.80;;;8.90;99.90;;;;;;5070628;28;20219;-74
2024/03/29 01:57:02;;;;;;;0.83;0.80;;;8.90;99.90;;;;;;5075520;28;20201;-74
2024/03/29 01:59:32;;;;;;;1.23;0.80;;;8.90;99.90;;;;;;5090729;28;20293;-74
2024/03/29 02:01:59;;;;;;;0.83;0.83;;;8.80;99.90;;;;;;5088645;28;20204;-75
2024/03/29 02:04:27;;;;;;;2.03;0.70;;;8.80;99.90;;;;;;5088696;28;20203;-74
2024/03/29 02:06:54;;;;;;;1.53;0.73;;;8.60;99.90;;;;;;5090149;28;20646;-74
2024/03/29 02:09:21;;;;;;;3.00;1.23;;;8.70;99.90;;;;;;5089977;28;20230;-74
2024/03/29 02:11:47;;;;;;;0.90;0.90;;;8.70;99.90;;;;;;5090282;28;20306;-75
2024/03/29 02:14:14;;;;;;;0.60;0.60;;;8.80;99.90;;;;;;5090482;28;20236;-74
2024/03/29 02:16:43;;;;;;;1.10;1.10;;;8.80;99.90;;;;;;5085595;28;20210;-74
2024/03/29 02:19:09;;;;;;;0.90;0.90;;;8.70;99.90;;;;;;5090353;28;20219;-75
2024/03/29 02:21:41;;;;;;;4.10;1.07;;;8.60;99.90;;;;;;5090286;28;20211;-74
2024/03/29 02:24:16;;;;;;;0.90;0.80;;;8.70;99.90;;;;;;5090522;28;20231;-74
2024/03/29 02:26:44;;;;;;;1.03;0.93;;;8.60;99.90;;;;;;5074974;28;20211;-74
2024/03/29 02:29:12;;;;;;;1.00;0.80;;;8.70;99.90;;;;;;5084544;28;20321;-74
2024/03/29 02:31:39;;;;;;;2.23;1.03;;;8.80;99.90;;;;;;5088094;28;20203;-74
2024/03/29 02:34:07;;;;;;;3.13;1.10;;;8.60;99.90;;;;;;5073025;28;20303;-74
2024/03/29 02:36:34;;;;;;;2.50;1.00;;;8.60;99.90;;;;;;5089969;28;20289;-74
2024/03/29 02:39:01;;;;;;;1.40;1.23;;;8.60;99.90;;;;;;5089784;28;20231;-74
2024/03/29 02:41:30;;;;;;;1.53;0.70;;;8.70;99.90;;;;;;5081954;28;20746;-74
2024/03/29 02:43:57;;;;;;;2.63;1.43;;;8.80;99.90;;;;;;5069417;28;20223;-74
2024/03/29 02:46:24;;;;;;;1.07;0.97;;;8.80;99.90;;;;;;5071125;28;20286;-74
2024/03/29 02:48:51;;;;;;;2.87;1.10;;;8.80;99.90;;;;;;5072304;28;20226;-74
2024/03/29 02:51:17;;;;;;;2.83;1.00;;;8.80;99.90;;;;;;5069395;28;20239;-75
2024/03/29 02:53:43;;;;;;;1.37;1.13;;;8.80;99.90;;;;;;5079134;28;20237;-75
2024/03/29 02:56:09;;;;;;;1.30;1.00;;;8.80;99.90;;;;;;5089326;28;20290;-75
2024/03/29 02:58:38;;;;;;;1.40;1.10;;;8.80;99.90;;;;;;5089869;28;20281;-74
2024/03/29 03:01:07;;;;;;;1.10;0.90;;;8.80;99.90;;;;;;5085136;28;20286;-75
2024/03/29 03:03:34;;;;;;;1.13;1.03;;;8.80;99.90;;;;;;5068726;28;20624;-74
2024/03/29 03:06:00;;;;;;;0.90;0.90;;;8.70;99.90;;;;;;5079106;28;20207;-74
2024/03/29 03:11:11;;;;;;;1.43;0.87;;;8.60;99.90;;;;;;5089223;28;20199;-74
2024/03/29 03:13:39;;;;;;;1.20;1.10;;;8.60;99.90;;;;;;5088508;28;20225;-75
2024/03/29 03:16:07;;;;;;;1.20;1.10;;;8.50;99.90;;;;;;5071270;28;20509;-75
2024/03/29 03:18:32;;;;;;;1.60;1.37;;;8.50;99.90;;;;;;5094342;28;20277;-75
2024/03/29 03:21:00;;;;;;;1.30;1.20;;;8.60;99.90;;;;;;5103880;28;20298;-74
2024/03/29 03:23:27;;;;;;;1.63;1.53;;;8.50;99.90;;;;;;5093052;28;20728;-75
2024/03/29 03:25:54;;;;;;;2.17;1.10;;;8.50;99.90;;;;;;5096877;28;20213;-75
2024/03/29 03:28:21;;;;;;;1.43;1.10;;;8.50;99.90;;;;;;5096338;28;20233;-74
2024/03/29 03:30:48;;;;;;;1.33;1.10;;;8.50;99.90;;;;;;5099493;28;20210;-74
2024/03/29 03:33:16;;;;;;;1.77;1.13;;;8.50;99.90;;;;;;5098093;28;20198;-75
2024/03/29 03:35:42;;;;;;;1.10;1.10;;;8.50;99.90;;;;;;5100922;28;20208;-74
2024/03/29 03:38:09;;;;;;;1.30;1.20;;;8.50;99.90;;;;;;5106775;28;20660;-75
2024/03/29 03:40:35;;;;;;;2.50;1.33;;;8.50;99.90;;;;;;5068394;28;20203;-75
2024/03/29 03:43:02;;;;;;;1.93;1.20;;;8.50;99.90;;;;;;5068737;28;20203;-75
2024/03/29 03:45:28;;;;;;;1.90;1.27;;;8.50;99.90;;;;;;5069197;28;20932;-76
2024/03/29 03:47:56;;;;;;;2.30;1.60;;;8.50;99.90;;;;;;5081072;28;20305;-76
2024/03/29 03:50:22;;;;;;;1.43;1.13;;;8.50;99.90;;;;;;5088551;28;20207;-76
2024/03/29 03:52:49;;;;;;;2.77;1.47;;;8.50;99.90;;;;;;5068979;28;20290;-76
2024/03/29 03:55:15;;;;;;;1.57;1.40;;;8.50;99.90;;;;;;5068491;28;20744;-76
2024/03/29 03:57:42;;;;;;;2.37;1.60;;;8.50;99.90;;;;;;5070322;28;20703;-75
2024/03/29 04:00:09;;;;;;;3.80;1.23;;;8.50;99.90;;;;;;5088360;28;20256;-76
2024/03/29 04:02:36;;;;;;;2.73;1.17;;;8.50;99.90;;;;;;5078870;28;20207;-75
2024/03/29 04:05:04;;;;;;;1.73;1.27;;;8.40;99.90;;;;;;5068018;28;20234;-75
2024/03/29 04:07:31;;;;;;;1.07;1.07;;;8.40;99.90;;;;;;5067881;28;20243;-75
2024/03/29 04:09:56;;;;;;;3.27;1.23;;;8.40;99.90;;;;;;5067847;28;20622;-76
2024/03/29 04:12:23;;;;;;;1.83;1.13;;;8.40;99.90;;;;;;5068231;28;20196;-76
2024/03/29 04:14:49;;;;;;;1.40;1.20;;;8.40;99.90;;;;;;5074251;28;20235;-75
2024/03/29 04:17:16;;;;;;;2.20;1.40;;;8.40;99.90;;;;;;5087457;28;20277;-76
2024/03/29 04:19:42;;;;;;;1.47;1.23;;;8.30;99.90;;;;;;5094896;28;20234;-76
2024/03/29 04:22:10;;;;;;;1.47;1.37;;;8.30;99.90;;;;;;5096267;28;20287;-75
2024/03/29 04:24:36;;;;;;;1.33;1.03;;;8.30;99.90;;;;;;5098530;28;20681;-75
2024/03/29 04:27:04;;;;;;;1.20;1.03;;;8.30;99.90;;;;;;5099001;28;20198;-74
2024/03/29 04:29:30;;;;;;;1.57;1.20;;;8.30;99.90;;;;;;5097480;28;20214;-74
2024/03/29 04:31:56;;;;;;;4.63;1.20;;;8.30;99.90;;;;;;5090611;28;20578;-74
2024/03/29 04:34:22;;;;;;;1.70;1.20;;;8.20;99.90;;;;;;5095972;28;20191;-74
2024/03/29 04:36:49;;;;;;;1.30;1.20;;;8.20;99.90;;;;;;5095023;28;20270;-74
2024/03/29 04:39:17;;;;;;;1.27;1.13;;;8.20;99.90;;;;;;5087441;28;20719;-74
2024/03/29 04:41:44;;;;;;;3.33;1.10;;;8.20;99.90;;;;;;5070283;28;20310;-74
2024/03/29 04:44:13;;;;;;;1.07;1.00;;;8.20;99.90;;;;;;5067638;28;20286;-74
2024/03/29 04:46:40;;;;;;;1.23;1.00;;;8.20;99.90;;;;;;5071811;28;20289;-74
2024/03/29 04:49:07;;;;;;;1.87;1.10;;;8.20;99.90;;;;;;5067457;28;20262;-74
2024/03/29 04:51:34;;;;;;;3.70;1.30;;;8.30;99.90;;;;;;5067164;28;20844;-76
2024/03/29 04:54:01;;;;;;;1.00;0.93;;;8.20;99.90;;;;;;5067922;28;20663;-76
2024/03/29 04:56:29;;;;;;;1.10;1.00;;;8.20;99.90;;;;;;5072694;28;20768;-75
2024/03/29 04:58:56;;;;;;;2.03;1.03;;;8.20;99.90;;;;;;5087862;28;20298;-75
2024/03/29 05:01:23;;;;;;;3.10;1.00;;;8.20;99.90;;;;;;5086706;28;20575;-76
2024/03/29 05:03:51;;;;;;;1.00;1.00;;;8.20;99.90;;;;;;5067393;28;20632;-75
2024/03/29 05:06:17;;;;;;;2.93;0.80;;;8.20;99.90;;;;;;5072479;28;20565;-75
2024/03/29 05:08:44;;;;;;;1.23;0.90;;;8.20;99.90;;;;;;5087534;28;20321;-75
2024/03/29 05:11:14;;;;;;;1.10;1.00;;;8.20;99.90;;;;;;5080047;28;20315;-75
2024/03/29 05:13:42;;;;;;;3.93;1.27;;;8.20;99.90;;;;;;5066849;28;20207;-76
2024/03/29 05:16:09;;;;;;;0.53;0.53;;;8.20;99.90;;;;;;5070054;28;20318;-76
2024/03/29 05:18:36;;;;;;;1.40;0.90;;;8.20;99.90;;;;;;5074702;28;20195;-76
2024/03/29 05:21:02;;;;;;;1.80;0.77;;;8.20;99.90;;;;;;5087122;28;20217;-75
2024/03/29 05:23:29;;;;;;;1.10;0.80;;;8.20;99.90;;;;;;5087319;28;20213;-76
2024/03/29 05:25:56;;;;;;;2.50;0.90;;;8.20;99.90;;;;;;5087287;28;20297;-76
2024/03/29 05:28:23;;;;;;;0.83;0.73;;;8.20;99.90;;;;;;5081899;28;20215;-76
2024/03/29 05:30:51;;;;;;;1.13;0.80;;;8.10;99.90;;;;;;5068703;28;20234;-76
2024/03/29 05:33:18;;;;;;;2.37;0.80;;;8.20;99.90;;;;;;5078074;28;20208;-76
2024/03/29 05:35:45;;;;;;;0.80;0.80;;;8.20;99.90;;;;;;5067072;28;20235;-77
2024/03/29 05:38:12;;;;;;;1.80;0.97;;;8.30;99.90;;;;;;5067105;28;20259;-77
2024/03/29 05:40:39;;;;;;;1.40;0.70;;;8.30;99.90;;;;;;5066735;28;20737;-76
2024/03/29 05:43:06;;;;;;;1.93;0.70;;;8.30;99.90;;;;;;5066784;28;20670;-76
2024/03/29 05:45:33;;;;;;;0.80;0.70;;;8.30;99.90;;;;;;5071334;28;20311;-76
2024/03/29 05:48:01;;;;;;;0.70;0.70;;;8.40;99.90;;;;;;5067027;28;20683;-76
2024/03/29 05:50:28;;;;;;;0.97;0.77;;;8.40;99.90;;;;;;5066674;28;20306;-76
2024/03/29 05:52:55;;;;;;;1.30;0.70;;;8.40;99.90;;;;;;5072836;28;20226;-76
2024/03/29 05:55:22;;;;;;;2.87;1.07;;;8.50;99.90;;;;;;5086843;28;20728;-76
2024/03/29 05:57:49;;;;;;;2.47;0.70;;;8.50;99.90;;;;;;5087189;28;20261;-76
2024/03/29 06:00:16;;;;;;;1.20;0.60;;;8.50;99.90;;;;;;5085699;28;20203;-75
2024/03/29 06:02:45;;;;;;;2.27;0.70;;;8.50;99.90;;;;;;5069729;28;21033;-75
2024/03/29 06:05:13;;;;;;;1.23;0.67;;;8.50;99.90;;;;;;5086033;28;20203;-75
2024/03/29 06:07:39;;;;;;;1.07;0.60;;;8.50;99.90;;;;;;5087021;28;20298;-75
2024/03/29 06:10:08;;;;;;;2.33;0.90;;;8.50;99.90;;;;;;5086581;28;20234;-75
2024/03/29 06:12:35;;;;;;;1.80;1.07;;;8.60;99.90;;;;;;5086827;28;20215;-75
2024/03/29 06:17:47;;;;;;;1.37;0.67;;;8.50;99.90;;;;;;5085111;28;20196;-75
2024/03/29 06:20:16;;;;;;;0.80;0.80;;;8.50;99.90;;;;;;5086845;28;20293;-76
2024/03/29 06:22:43;;;;;;;0.90;0.77;;;8.60;99.90;;;;;;5086952;28;20293;-75
2024/03/29 06:25:10;;;;;;;1.00;0.77;;;8.60;99.90;;;;;;5085093;28;20717;-75
2024/03/29 06:27:38;;;;;;;1.23;1.00;;;8.60;99.90;;;;;;5078095;28;20199;-75
2024/03/29 06:30:06;;;;;;;0.97;0.70;;;8.60;99.90;;;;;;5075889;28;20235;-75
2024/03/29 06:32:33;;;;;;;0.73;0.70;;;8.60;99.90;;;;;;5081473;28;20199;-75
2024/03/29 06:35:00;;;;;;;2.80;0.73;;;8.70;99.90;;;;;;5085274;28;20293;-75
2024/03/29 06:37:29;;;;;;;2.23;0.87;;;8.70;99.90;;;;;;5082149;28;20309;-74
2024/03/29 06:39:56;;;;;;;0.60;0.60;;;8.70;99.90;;;;;;5088740;28;20213;-75
2024/03/29 06:42:24;;;;;;;0.60;0.60;;;8.80;99.90;;;;;;5090110;28;20301;-74
2024/03/29 06:44:51;;;;;;;3.13;0.80;;;8.80;99.90;;;;;;5070023;28;20290;-75
2024/03/29 06:47:19;;;;;;;4.80;0.93;;;8.80;99.90;;;;;;5075008;28;20778;-75
2024/03/29 06:49:46;;;;;;;1.90;1.03;;;8.80;99.90;;;;;;5089582;28;20321;-75
2024/03/29 06:52:13;;;;;;;0.50;0.50;;;8.90;99.90;;;;;;5089776;28;20668;-75
2024/03/29 06:54:41;;;;;;;2.37;0.90;;;8.90;99.90;;;;;;5089978;28;20215;-75
2024/03/29 06:57:10;;;;;;;1.80;0.97;;;9.00;99.90;;;;;;5089127;28;20666;-76
2024/03/29 06:59:37;;;;;;;1.40;1.10;;;8.90;99.90;;;;;;5081069;28;20235;-75
2024/03/29 07:02:06;;;;;;;2.40;0.90;;;9.00;99.90;;;;;;5073693;28;20199;-77
2024/03/29 07:04:33;;;;;;;1.00;0.70;;;9.00;99.90;;;;;;5089872;28;20205;-77
2024/03/29 07:07:00;;;;;;;1.07;0.80;;;9.00;99.90;;;;;;5081787;28;20231;-77
2024/03/29 07:09:27;;;;;;;1.43;0.60;;;9.00;99.90;;;;;;5069230;28;20266;-77
2024/03/29 07:11:55;;;;;;;1.97;0.63;;;9.00;99.90;;;;;;5081105;28;20206;-77
2024/03/29 07:14:23;;;;;;;2.17;0.57;;;9.00;99.90;;;;;;5089145;28;20241;-77
2024/03/29 07:16:50;;;;;;;0.70;0.70;;;9.00;99.90;;;;;;5086509;28;20313;-77
2024/03/29 07:19:18;;;;;;;1.50;0.77;;;9.10;99.90;;;;;;5069245;28;20674;-77
2024/03/29 07:21:45;;;;;;;1.23;0.67;;;9.00;99.90;;;;;;5080062;28;20203;-76
2024/03/29 07:24:12;;;;;;;1.33;0.70;;;9.10;99.90;;;;;;5080003;28;20219;-76
2024/03/29 07:26:39;;;;;;;1.57;0.80;;;9.20;99.90;;;;;;5079930;28;20630;-78
2024/03/29 07:29:08;;;;;;;0.73;0.50;;;9.30;99.90;;;;;;5083006;28;20270;-78
2024/03/29 07:31:35;;;;;;;0.73;0.73;;;9.30;99.90;;;;;;5096474;28;20669;-78
2024/03/29 07:34:02;;;;;;;2.60;0.83;;;9.30;99.90;;;;;;5103396;28;20221;-78
2024/03/29 07:36:33;;;;;;;1.27;0.63;;;9.40;99.90;;;;;;5109794;28;20256;-77
2024/03/29 07:39:01;;;;;;;0.87;0.73;;;9.40;99.90;;;;;;5108866;28;20722;-78
2024/03/29 07:41:28;;;;;;;1.03;0.90;;;9.40;99.90;;;;;;5086671;28;20610;-77
2024/03/29 07:43:59;;;;;;;0.77;0.53;;;9.40;99.90;;;;;;5088581;28;20290;-78
2024/03/29 07:46:29;;;;;;;1.70;1.00;;;9.40;99.90;;;;;;5089253;28;20203;-78
2024/03/29 07:48:56;;;;;;;0.77;0.77;;;9.40;99.90;;;;;;5085400;28;20623;-78
2024/03/29 07:51:23;;;;;;;2.73;0.90;;;9.50;99.90;;;;;;5088921;28;20206;-78
2024/03/29 07:53:49;;;;;;;1.90;0.70;;;9.50;99.90;;;;;;5088804;28;20203;-74
2024/03/29 07:56:17;;;;;;;1.53;0.73;;;9.60;99.90;;;;;;5087683;28;20672;-76
2024/03/29 07:58:43;;;;;;;2.67;0.60;;;9.60;99.90;;;;;;5088454;28;20253;-76
2024/03/29 08:01:10;;;;;;;2.23;0.77;;;9.70;99.90;;;;;;5088120;28;20772;-75
2024/03/29 08:03:39;;;;;;;0.83;0.67;;;9.70;99.90;;;;;;5077544;28;20704;-77
2024/03/29 08:06:06;;;;;;;1.87;1.00;;;9.70;99.90;;;;;;5068118;28;20302;-76
2024/03/29 08:08:33;;;;;;;2.47;0.77;;;9.80;99.90;;;;;;5068510;28;20256;-76
2024/03/29 08:11:01;;;;;;;1.70;0.50;;;9.80;99.90;;;;;;5067886;28;20230;-76
2024/03/29 08:13:28;;;;;;;1.20;0.97;;;9.80;99.90;;;;;;5086676;28;20202;-76
2024/03/29 08:15:59;;;;;;;1.13;0.73;;;9.80;99.90;;;;;;5088569;28;20215;-76
2024/03/29 08:18:26;;;;;;;0.80;0.73;;;9.90;99.90;;;;;;5086672;28;20555;-74
2024/03/29 08:20:56;;;;;;;0.97;0.83;;;9.90;99.90;;;;;;5074011;28;20220;-74
2024/03/29 08:23:23;;;;;;;0.90;0.90;;;9.90;99.90;;;;;;5070900;28;20203;-73
2024/03/29 08:25:51;;;;;;;0.90;0.70;;;9.90;99.90;;;;;;5087596;28;20268;-73
2024/03/29 08:28:18;;;;;;;2.60;0.60;;;9.90;99.90;;;;;;5082732;28;21004;-74
2024/03/29 08:30:45;;;;;;;0.87;0.50;;;9.90;99.90;;;;;;5096094;28;20326;-74
2024/03/29 08:33:15;;;;;;;0.50;0.50;;;10.00;99.90;;;;;;5077694;28;20290;-74
2024/03/29 08:35:43;;;;;;;0.50;0.50;;;10.00;99.90;;;;;;5092060;28;20285;-74
2024/03/29 08:38:10;;;;;;;0.60;0.60;;;10.10;99.90;;;;;;5098567;28;20233;-73
2024/03/29 08:40:40;;;;;;;0.97;0.60;;;10.10;99.90;;;;;;5094069;28;20203;-75
2024/03/29 08:43:07;;;;;;;1.00;0.80;;;10.20;99.90;;;;;;5076692;28;20230;-74
2024/03/29 08:45:34;;;;;;;1.57;0.60;;;10.30;99.90;;;;;;5073232;28;20204;-75
2024/03/29 08:48:01;;;;;;;0.77;0.77;;;10.40;99.90;;;;;;5084642;28;20675;-75
2024/03/29 08:50:28;;;;;;;1.70;0.73;;;10.40;99.90;;;;;;5087578;28;20743;-75
2024/03/29 08:52:54;;;;;;;0.83;0.77;;;10.50;99.90;;;;;;5087426;28;20242;-75
2024/03/29 08:55:23;;;;;;;0.97;0.43;;;10.60;99.90;;;;;;5086759;28;20703;-76
2024/03/29 08:57:49;;;;;;;1.37;0.70;;;10.60;99.90;;;;;;5087804;28;20352;-75
2024/03/29 09:00:17;;;;;;;1.43;0.63;;;10.70;99.90;;;;;;5087671;28;20340;-75
2024/03/29 09:02:43;;;;;;;2.33;1.00;;;10.70;99.90;;;;;;5082994;28;20658;-76
2024/03/29 09:05:10;;;;;;;0.70;0.50;;;10.70;99.90;;;;;;5080866;28;20244;-76
2024/03/29 09:07:38;;;;;;;0.67;0.60;;;10.80;99.90;;;;;;5092741;28;20628;-74
2024/03/29 09:10:06;;;;;;;0.90;0.70;;;10.70;99.90;;;;;;5093530;28;20237;-75
2024/03/29 09:12:36;;;;;;;0.70;0.70;;;10.80;99.90;;;;;;5082375;28;20653;-74
2024/03/29 09:15:08;;;;;;;1.50;1.00;;;10.80;99.90;;;;;;5087261;28;20329;-74
2024/03/29 09:17:35;;;;;;;2.87;0.60;;;10.90;99.90;;;;;;5077931;28;20204;-74
2024/03/29 09:20:02;;;;;;;1.93;0.60;;;10.90;99.90;;;;;;5067141;28;20235;-72
2024/03/29 09:22:29;;;;;;;1.07;0.60;;;11.00;99.90;;;;;;5066855;28;20294;-72
2024/03/29 09:24:56;;;;;;;1.37;0.87;;;11.10;99.90;;;;;;5066573;28;20210;-72
2024/03/29 09:27:23;;;;;;;0.77;0.50;;;11.10;99.90;;;;;;5067054;28;20287;-72
2024/03/29 09:29:51;;;;;;;0.87;0.60;;;11.10;99.90;;;;;;5069981;28;20278;-74
2024/03/29 09:32:19;;;;;;;1.93;0.70;;;11.10;99.90;;;;;;5071139;28;20192;-78
2024/03/29 09:34:46;;;;;;;0.80;0.77;;;11.10;99.90;;;;;;5067025;28;20222;-74
2024/03/29 09:37:13;;;;;;;2.63;0.80;;;11.20;99.90;;;;;;5066885;28;20310;-74
2024/03/29 09:39:40;;;;;;;0.80;0.80;;;11.20;99.90;;;;;;5067072;28;20277;-74
2024/03/29 09:42:08;;;;;;;1.13;0.77;;;11.30;99.90;;;;;;5084973;28;20666;-75
2024/03/29 09:44:36;;;;;;;0.83;0.77;;;11.30;99.90;;;;;;5076679;28;20318;-73
2024/03/29 09:47:05;;;;;;;1.27;0.60;;;11.20;99.90;;;;;;5066145;28;20257;-74
2024/03/29 09:49:33;;;;;;;1.00;0.70;;;11.30;99.90;;;;;;5066202;28;20258;-74
2024/03/29 09:52:00;;;;;;;2.00;0.77;;;11.30;99.90;;;;;;5064970;28;20270;-74
2024/03/29 09:54:29;;;;;;;2.57;0.73;;;11.30;99.90;;;;;;5064860;28;20298;-74
2024/03/29 09:56:56;;;;;;;0.87;0.60;;;11.30;99.90;;;;;;5064656;28;20217;-74
2024/03/29 09:59:24;;;;;;;2.30;0.60;;;11.30;99.90;;;;;;5074986;28;20693;-74
2024/03/29 10:01:51;;;;;;;1.30;0.60;;;11.30;99.90;;;;;;5064845;28;21044;-74
2024/03/29 10:04:22;;;;;;;1.40;0.70;;;11.30;99.90;;;;;;5077849;28;20213;-73
2024/03/29 10:06:50;;;;;;;0.87;0.60;;;11.40;99.90;;;;;;5095381;28;20572;-74
2024/03/29 10:09:18;;;;;;;2.37;0.67;;;11.40;99.90;;;;;;5097460;28;20234;-74
2024/03/29 10:11:46;;;;;;;1.30;0.67;;;11.40;99.90;;;;;;5101492;28;20743;-74
2024/03/29 10:14:13;;;;;;;2.90;1.00;;;11.40;99.90;;;;;;5087468;28;20230;-74
2024/03/29 10:16:41;;;;;;;0.77;0.60;;;11.30;99.90;;;;;;5097137;28;20731;-74
2024/03/29 10:19:10;;;;;;;0.83;0.70;;;11.30;99.90;;;;;;5087392;28;20198;-74
2024/03/29 10:21:39;;;;;;;0.60;0.60;;;11.30;99.90;;;;;;5098830;28;20207;-74
2024/03/29 10:24:13;;;;;;;1.33;0.50;;;11.20;99.90;;;;;;5093962;28;20199;-74
2024/03/29 10:26:40;;;;;;;1.23;0.57;;;11.20;99.90;;;;;;5095437;28;20202;-74
2024/03/29 10:29:07;;;;;;;1.00;0.60;;;11.20;99.90;;;;;;5094254;28;20291;-75
2024/03/29 10:31:35;;;;;;;2.83;0.90;;;11.20;99.90;;;;;;5108718;28;20229;-74
2024/03/29 10:34:05;;;;;;;1.00;0.90;;;11.20;99.90;;;;;;5082761;28;20203;-74
2024/03/29 10:36:35;;;;;;;0.43;0.40;;;11.10;99.90;;;;;;5068023;28;20215;-74
2024/03/29 10:39:11;;;;;;;0.73;0.57;;;11.20;99.90;;;;;;5080802;28;20195;-75
2024/03/29 10:41:40;;;;;;;1.50;0.67;;;11.20;99.90;;;;;;5072777;28;20638;-75
2024/03/29 10:44:09;;;;;;;0.67;0.40;;;11.20;99.90;;;;;;5068229;28;20697;-75
2024/03/29 10:46:38;;;;;;;1.70;0.60;;;11.20;99.90;;;;;;5067777;28;20219;-73
2024/03/29 10:49:09;;;;;;;0.43;0.43;;;11.20;99.90;;;;;;5078262;28;20668;-73
2024/03/29 10:51:39;;;;;;;0.53;0.47;;;11.10;99.90;;;;;;5087829;28;20218;-74
2024/03/29 10:54:09;;;;;;;0.77;0.60;;;11.10;99.90;;;;;;5087664;28;20221;-74
2024/03/29 10:56:37;;;;;;;0.40;0.40;;;11.10;99.90;;;;;;5088034;28;20215;-74
2024/03/29 10:59:12;;;;;;;0.70;0.70;;;11.10;99.90;;;;;;5073765;28;20300;-74
2024/03/29 11:01:42;;;;;;;0.93;0.70;;;11.10;99.90;;;;;;5081648;28;20237;-74
2024/03/29 11:04:14;;;;;;;1.73;0.80;;;11.20;99.90;;;;;;5077662;28;20235;-75
2024/03/29 11:06:42;;;;;;;1.83;0.80;;;11.10;99.90;;;;;;5067512;28;20283;-75
2024/03/29 11:09:14;;;;;;;1.50;0.70;;;11.10;99.90;;;;;;5076521;28;20198;-75
2024/03/29 11:11:44;;;;;;;0.70;0.60;;;11.10;99.90;;;;;;5069975;28;20255;-76
2024/03/29 11:14:17;;;;;;;0.73;0.40;;;11.10;99.90;;;;;;5066315;28;20239;-75
2024/03/29 11:16:45;;;;;;;0.87;0.60;;;11.20;99.90;;;;;;5067461;28;20652;-76
2024/03/29 11:19:14;;;;;;;0.50;0.40;;;11.20;99.90;;;;;;5073960;28;20678;-76
2024/03/29 11:21:42;;;;;;;1.10;0.90;;;11.20;99.90;;;;;;5087502;28;20214;-75
2024/03/29 11:24:12;;;;;;;0.70;0.70;;;11.30;99.90;;;;;;5067362;28;20926;-75
2024/03/29 11:26:38;;;;;;;0.77;0.57;;;11.30;99.90;;;;;;5071905;28;20714;-75
2024/03/29 11:29:06;;;;;;;1.17;0.80;;;11.30;99.90;;;;;;5088050;28;20293;-76
2024/03/29 11:31:39;;;;;;;0.60;0.60;;;11.30;99.90;;;;;;5107802;28;20266;-77
2024/03/29 11:34:10;;;;;;;0.90;0.73;;;11.30;99.90;;;;;;5096066;28;20270;-76
2024/03/29 11:36:40;;;;;;;0.70;0.63;;;11.30;99.90;;;;;;5087344;28;20276;-76
2024/03/29 11:39:08;;;;;;;0.60;0.43;;;11.30;99.90;;;;;;5087650;28;20289;-76
2024/03/29 11:41:36;;;;;;;1.57;0.73;;;11.40;99.90;;;;;;5073019;28;20211;-76
2024/03/29 11:44:03;;;;;;;0.53;0.53;;;11.40;99.90;;;;;;5068418;28;20282;-76
2024/03/29 11:46:35;;;;;;;0.40;0.40;;;11.40;99.90;;;;;;5067409;28;20215;-75
2024/03/29 11:49:03;;;;;;;0.77;0.73;;;11.40;99.90;;;;;;5077528;28;20202;-75
2024/03/29 11:51:30;;;;;;;0.37;0.30;;;11.40;99.90;;;;;;5066937;28;20258;-75
2024/03/29 11:53:57;;;;;;;0.93;0.60;;;11.50;99.90;;;;;;5081849;28;20634;-75
2024/03/29 11:56:24;;;;;;;0.67;0.53;;;11.50;99.90;;;;;;5087192;28;20297;-75
2024/03/29 11:58:54;;;;;;;0.80;0.70;;;11.50;99.90;;;;;;5086534;28;20214;-75
2024/03/29 12:01:21;;;;;;;0.87;0.40;;;11.60;99.90;;;;;;5083375;28;20211;-75
2024/03/29 12:03:49;;;;;;;1.03;0.60;;;11.60;99.90;;;;;;5077986;28;20318;-75
2024/03/29 12:06:17;;;;;;;1.60;0.50;;;11.60;99.90;;;;;;5078325;28;20208;-75
2024/03/29 12:08:44;;;;;;;0.50;0.50;;;11.60;99.90;;;;;;5076770;28;20673;-74
2024/03/29 12:11:11;;;;;;;0.63;0.60;;;11.60;99.90;;;;;;5078374;28;20321;-75
2024/03/29 12:13:40;;;;;;;0.57;0.57;;;11.70;99.90;;;;;;5079099;28;20314;-74
2024/03/29 12:16:08;;;;;;;0.50;0.40;;;11.70;99.90;;;;;;5077538;28;20191;-75
2024/03/29 12:18:36;;;;;;;0.70;0.50;;;11.70;99.90;;;;;;5077017;28;20205;-75
2024/03/29 12:21:03;;;;;;;0.77;0.53;;;11.70;99.90;;;;;;5076200;28;20604;-75
2024/03/29 12:23:30;;;;;;;1.07;0.53;;;11.70;99.90;;;;;;5079434;28;20200;-75
2024/03/29 12:26:00;;;;;;;0.87;0.57;;;11.70;99.90;;;;;;5077690;28;20725;-75
2024/03/29 12:28:28;;;;;;;0.77;0.70;;;11.70;99.90;;;;;;5084668;28;20202;-75
2024/03/29 12:30:56;;;;;;;0.63;0.40;;;11.80;99.90;;;;;;5099050;28;20235;-75
2024/03/29 12:33:25;;;;;;;0.50;0.47;;;11.80;99.90;;;;;;5095850;28;20226;-75
2024/03/29 12:35:54;;;;;;;0.60;0.47;;;11.90;99.90;;;;;;5074030;28;20589;-76
2024/03/29 12:38:22;;;;;;;0.30;0.30;;;12.00;99.90;;;;;;5066487;28;20223;-75
2024/03/29 12:40:50;;;;;;;0.70;0.47;;;12.20;99.90;;;;;;5066926;28;20239;-75
2024/03/29 12:43:21;;;;;;;0.60;0.60;;;12.30;99.90;;;;;;5067387;28;20207;-76
2024/03/29 12:45:49;;;;;;;1.60;0.57;;;12.50;99.90;;;;;;5074680;28;20256;-75
2024/03/29 12:48:19;;;;;;;1.93;0.53;;;12.70;99.90;;;;;;5087519;28;20688;-76
2024/03/29 12:50:48;;;;;;;1.40;0.50;;;12.80;99.90;;;;;;5080580;28;20236;-76
2024/03/29 12:53:16;;;;;;;0.53;0.40;;;12.90;99.90;;;;;;5087037;28;20858;-76
2024/03/29 12:55:45;;;;;;;1.00;0.47;;;12.90;99.90;;;;;;5086888;28;20203;-75
2024/03/29 12:58:13;;;;;;;0.60;0.60;;;12.90;99.90;;;;;;5086477;28;20203;-76
2024/03/29 13:00:40;;;;;;;0.20;0.20;;;12.90;99.90;;;;;;5078137;28;20249;-76
2024/03/29 13:03:07;;;;;;;1.70;0.40;;;12.90;99.90;;;;;;5087096;28;20285;-76
2024/03/29 13:05:40;;;;;;;2.23;0.50;;;12.90;99.90;;;;;;5085059;28;20194;-76
2024/03/29 13:08:09;;;;;;;0.60;0.60;;;12.90;99.90;;;;;;5087091;28;20198;-76
2024/03/29 13:10:36;;;;;;;1.00;0.83;;;12.90;99.90;;;;;;5086939;28;20226;-76
2024/03/29 13:13:03;;;;;;;0.40;0.40;;;12.80;99.90;;;;;;5086849;28;20242;-76
2024/03/29 13:15:30;;;;;;;0.53;0.50;;;12.80;99.90;;;;;;5087033;28;20235;-76
2024/03/29 13:17:58;;;;;;;0.83;0.77;;;12.80;99.90;;;;;;5086788;28;20263;-76
2024/03/29 13:20:25;;;;;;;0.87;0.50;;;12.70;99.90;;;;;;5083670;28;20602;-76
2024/03/29 13:22:54;;;;;;;0.60;0.20;;;12.80;99.90;;;;;;5066889;28;20294;-75
2024/03/29 13:25:22;;;;;;;1.33;0.60;;;12.80;99.90;;;;;;5079604;28;20203;-76
2024/03/29 13:27:53;;;;;;;0.60;0.60;;;12.90;99.90;;;;;;5086921;28;20310;-75
2024/03/29 13:30:21;;;;;;;1.30;0.90;;;13.00;99.90;;;;;;5087070;28;20195;-75
2024/03/29 13:32:49;;;;;;;1.00;0.57;;;13.10;99.90;;;;;;5074563;28;20287;-76
2024/03/29 13:35:16;;;;;;;0.70;0.70;;;13.30;99.90;;;;;;5082461;28;20252;-76
2024/03/29 13:37:45;;;;;;;0.70;0.53;;;13.40;99.90;;;;;;5086665;28;20227;-76
2024/03/29 13:40:13;;;;;;;0.50;0.50;;;13.50;99.90;;;;;;5086523;28;20713;-76
2024/03/29 13:42:42;;;;;;;0.63;0.63;;;13.60;99.90;;;;;;5085338;28;20752;-77
2024/03/29 13:45:10;;;;;;;0.90;0.60;;;13.70;99.90;;;;;;5070403;28;20558;-74
2024/03/29 13:47:39;;;;;;;2.73;0.90;;;13.70;99.90;;;;;;5067305;28;20207;-75
2024/03/29 13:50:07;;;;;;;1.17;0.70;;;13.80;99.90;;;;;;5089102;28;20298;-75
2024/03/29 13:52:34;;;;;;;0.63;0.60;;;14.00;99.90;;;;;;5090555;28;20321;-75
2024/03/29 13:55:02;;;;;;;0.70;0.70;;;14.10;99.90;;;;;;5090376;28;20736;-75
2024/03/29 13:57:29;;;;;;;0.87;0.50;;;14.20;99.90;;;;;;5090673;28;20661;-76
2024/03/29 13:59:58;;;;;;;0.77;0.70;;;14.60;99.90;;;;;;5090752;28;20293;-76
2024/03/29 14:02:27;;;;;;;0.63;0.60;;;15.10;99.90;;;;;;5071446;28;20276;-76
2024/03/29 14:04:54;;;;;;;3.43;0.80;;;15.20;99.90;;;;;;5071183;28;20235;-75
2024/03/29 14:07:20;;;;;;;0.70;0.57;;;15.40;99.90;;;;;;5086558;28;20949;-75
2024/03/29 14:09:48;;;;;;;0.53;0.53;;;15.60;99.90;;;;;;5076099;28;20206;-76
2024/03/29 14:12:16;;;;;;;0.87;0.70;;;15.80;99.90;;;;;;5090355;28;20237;-75
2024/03/29 14:14:43;;;;;;;0.83;0.83;;;16.10;99.90;;;;;;5081912;28;20292;-75
2024/03/29 14:17:11;;;;;;;1.23;0.67;;;16.10;99.90;;;;;;5071721;28;20215;-75
2024/03/29 14:19:38;;;;;;;0.93;0.80;;;15.70;99.90;;;;;;5074589;28;20302;-75
2024/03/29 14:22:06;;;;;;;0.93;0.80;;;15.60;99.90;;;;;;5082215;28;20238;-75
2024/03/29 14:24:35;;;;;;;1.10;0.60;;;15.40;99.90;;;;;;5089942;28;20217;-75
2024/03/29 14:27:03;;;;;;;1.77;0.67;;;15.30;99.90;;;;;;5090294;28;20210;-75
2024/03/29 14:29:30;;;;;;;0.93;0.60;;;15.30;99.90;;;;;;5089739;28;20268;-75
2024/03/29 14:31:56;;;;;;;0.90;0.80;;;15.20;99.90;;;;;;5083685;28;20672;-75
2024/03/29 14:34:26;;;;;;;1.03;0.73;;;15.20;99.90;;;;;;5090433;28;20209;-75
2024/03/29 14:36:53;;;;;;;1.07;0.70;;;15.30;99.90;;;;;;5073504;28;20238;-75
2024/03/29 14:39:20;;;;;;;1.40;0.70;;;15.40;99.90;;;;;;5069995;28;20317;-76
2024/03/29 14:41:50;;;;;;;0.93;0.73;;;15.30;99.90;;;;;;5069655;28;20211;-76
2024/03/29 14:44:17;;;;;;;1.77;1.00;;;15.40;99.90;;;;;;5077097;28;20249;-75